sensor_id;sensor_type;location;lat;lon;timestamp;temperature;humidity
20815;DHT22;10568;48.176;16.316;2023-03-02T00:04:11;4.20;99.90
20815;DHT22;10568;48.176;16.316;2023-03-02T00:06:39;4.20;99.90
20815;DHT22;10568;48.176;16.316;2023-03-02T00:09:05;4.20;99.90
20815;DHT22;10568;48.176;16.316;2023-03-02T00:11:33;4.20;99.90
20815;DHT22;10568;48.176;16.316;2023-03-02T00:13:59;4.20;99.90
20815;DHT22;10568;48.176;16.316;2023-03-02T00:16:25;4.20;99.90
20815;DHT22;10568;48.176;16.316;2023-03-02T00:18:51;4.20;99.90
20815;DHT22;10568;48.176;16.316;2023-03-02T00:21:17;4.20;99.90
20815;DHT22;10568;48.176;16.316;2023-03-02T00:23:42;4.30;99.90
20815;DHT22;10568;48.176;16.316;2023-03-02T00:26:09;4.30;99.90
20815;DHT22;10568;48.176;16.316;2023-03-02T00:28:35;4.30;99.90
20815;DHT22;10568;48.176;16.316;2023-03-02T00:31:05;4.30;99.90
20815;DHT22;10568;48.176;16.316;2023-03-02T00:33:32;4.30;99.90
20815;DHT22;10568;48.176;16.316;2023-03-02T00:35:58;4.30;99.90
20815;DHT22;10568;48.176;16.316;2023-03-02T00:38:23;4.30;99.90
20815;DHT22;10568;48.176;16.316;2023-03-02T00:40:49;4.30;99.90
20815;DHT22;10568;48.176;16.316;2023-03-02T00:43:15;4.30;99.90
20815;DHT22;10568;48.176;16.316;2023-03-02T00:45:41;4.30;99.90
20815;DHT22;10568;48.176;16.316;2023-03-02T00:48:08;4.30;99.90
20815;DHT22;10568;48.176;16.316;2023-03-02T00:50:34;4.20;99.90
20815;DHT22;10568;48.176;16.316;2023-03-02T00:53:06;4.20;99.90
20815;DHT22;10568;48.176;16.316;2023-03-02T00:55:33;4.20;99.90
20815;DHT22;10568;48.176;16.316;2023-03-02T00:57:59;4.20;99.90
20815;DHT22;10568;48.176;16.316;2023-03-02T01:00:25;4.20;99.90
20815;DHT22;10568;48.176;16.316;2023-03-02T01:02:54;4.20;99.90
20815;DHT22;10568;48.176;16.316;2023-03-02T01:05:20;4.20;99.90
20815;DHT22;10568;48.176;16.316;2023-03-02T01:07:46;4.30;99.90
20815;DHT22;10568;48.176;16.316;2023-03-02T01:10:13;4.20;99.90
20815;DHT22;10568;48.176;16.316;2023-03-02T01:12:39;4.20;99.90
20815;DHT22;10568;48.176;16.316;2023-03-02T01:15:06;4.20;99.90
20815;DHT22;10568;48.176;16.316;2023-03-02T01:17:32;4.20;99.90
20815;DHT22;10568;48.176;16.316;2023-03-02T01:19:58;4.20;99.90
20815;DHT22;10568;48.176;16.316;2023-03-02T01:22:24;4.20;99.90
20815;DHT22;10568;48.176;16.316;2023-03-02T01:24:51;4.20;99.90
20815;DHT22;10568;48.176;16.316;2023-03-02T01:27:17;4.10;99.90
20815;DHT22;10568;48.176;16.316;2023-03-02T01:29:43;4.20;99.90
20815;DHT22;10568;48.176;16.316;2023-03-02T01:32:10;4.10;99.90
20815;DHT22;10568;48.176;16.316;2023-03-02T01:34:36;4.10;99.90
20815;DHT22;10568;48.176;16.316;2023-03-02T01:37:01;4.10;99.90
20815;DHT22;10568;48.176;16.316;2023-03-02T01:39:27;4.10;99.90
20815;DHT22;10568;48.176;16.316;2023-03-02T01:41:53;4.10;99.90
20815;DHT22;10568;48.176;16.316;2023-03-02T01:44:44;4.10;99.90
20815;DHT22;10568;48.176;16.316;2023-03-02T01:50:25;4.00;99.90
20815;DHT22;10568;48.176;16.316;2023-03-02T01:52:34;4.00;99.90
20815;DHT22;10568;48.176;16.316;2023-03-02T01:55:05;4.10;99.90
20815;DHT22;10568;48.176;16.316;2023-03-02T01:57:34;4.10;99.90
20815;DHT22;10568;48.176;16.316;2023-03-02T02:00:15;4.10;99.90
20815;DHT22;10568;48.176;16.316;2023-03-02T02:02:44;4.10;99.90
20815;DHT22;10568;48.176;16.316;2023-03-02T02:05:32;4.10;99.90
20815;DHT22;10568;48.176;16.316;2023-03-02T02:07:58;4.10;99.90
20815;DHT22;10568;48.176;16.316;2023-03-02T02:10:24;4.10;99.90
20815;DHT22;10568;48.176;16.316;2023-03-02T02:12:50;4.10;99.90
20815;DHT22;10568;48.176;16.316;2023-03-02T02:15:16;4.00;99.90
20815;DHT22;10568;48.176;16.316;2023-03-02T02:17:43;4.00;99.90
20815;DHT22;10568;48.176;16.316;2023-03-02T02:23:31;4.00;99.90
20815;DHT22;10568;48.176;16.316;2023-03-02T02:28:47;3.90;99.90
20815;DHT22;10568;48.176;16.316;2023-03-02T02:33:45;3.80;99.90
20815;DHT22;10568;48.176;16.316;2023-03-02T02:36:17;3.70;99.90
20815;DHT22;10568;48.176;16.316;2023-03-02T02:38:46;3.60;99.90
20815;DHT22;10568;48.176;16.316;2023-03-02T02:41:24;3.50;99.90
20815;DHT22;10568;48.176;16.316;2023-03-02T02:43:52;3.40;99.90
20815;DHT22;10568;48.176;16.316;2023-03-02T02:46:19;3.30;99.90
20815;DHT22;10568;48.176;16.316;2023-03-02T02:48:45;3.10;99.90
20815;DHT22;10568;48.176;16.316;2023-03-02T02:51:18;3.00;99.90
20815;DHT22;10568;48.176;16.316;2023-03-02T02:53:54;2.80;99.90
20815;DHT22;10568;48.176;16.316;2023-03-02T02:56:35;2.70;99.90
20815;DHT22;10568;48.176;16.316;2023-03-02T03:01:40;2.50;99.90
20815;DHT22;10568;48.176;16.316;2023-03-02T03:04:06;2.40;99.90
20815;DHT22;10568;48.176;16.316;2023-03-02T03:06:34;2.30;99.90
20815;DHT22;10568;48.176;16.316;2023-03-02T03:09:10;2.20;99.90
20815;DHT22;10568;48.176;16.316;2023-03-02T03:11:40;2.10;99.90
20815;DHT22;10568;48.176;16.316;2023-03-02T03:14:10;2.00;99.90
20815;DHT22;10568;48.176;16.316;2023-03-02T03:16:38;1.90;99.90
20815;DHT22;10568;48.176;16.316;2023-03-02T03:21:34;1.70;99.90
20815;DHT22;10568;48.176;16.316;2023-03-02T03:24:01;1.60;99.90
20815;DHT22;10568;48.176;16.316;2023-03-02T03:29:48;1.50;99.90
20815;DHT22;10568;48.176;16.316;2023-03-02T03:32:14;1.40;99.90
20815;DHT22;10568;48.176;16.316;2023-03-02T03:34:40;1.40;99.90
20815;DHT22;10568;48.176;16.316;2023-03-02T03:37:08;1.30;99.90
20815;DHT22;10568;48.176;16.316;2023-03-02T03:39:34;1.30;99.90
20815;DHT22;10568;48.176;16.316;2023-03-02T03:42:00;1.20;99.90
20815;DHT22;10568;48.176;16.316;2023-03-02T03:44:27;1.20;99.90
20815;DHT22;10568;48.176;16.316;2023-03-02T03:46:53;1.10;99.90
20815;DHT22;10568;48.176;16.316;2023-03-02T03:49:18;1.10;99.90
20815;DHT22;10568;48.176;16.316;2023-03-02T03:51:44;1.00;99.90
20815;DHT22;10568;48.176;16.316;2023-03-02T03:54:11;1.00;99.90
20815;DHT22;10568;48.176;16.316;2023-03-02T03:56:43;0.90;99.90
20815;DHT22;10568;48.176;16.316;2023-03-02T03:59:11;0.90;99.90
20815;DHT22;10568;48.176;16.316;2023-03-02T04:01:46;0.80;99.90
20815;DHT22;10568;48.176;16.316;2023-03-02T04:04:16;0.70;99.90
20815;DHT22;10568;48.176;16.316;2023-03-02T04:06:42;0.70;99.90
20815;DHT22;10568;48.176;16.316;2023-03-02T04:09:08;0.60;99.90
20815;DHT22;10568;48.176;16.316;2023-03-02T04:11:37;0.60;99.90
20815;DHT22;10568;48.176;16.316;2023-03-02T04:14:04;0.50;99.90
20815;DHT22;10568;48.176;16.316;2023-03-02T04:16:30;0.50;99.90
20815;DHT22;10568;48.176;16.316;2023-03-02T04:18:57;0.50;99.90
20815;DHT22;10568;48.176;16.316;2023-03-02T04:21:23;0.50;99.90
20815;DHT22;10568;48.176;16.316;2023-03-02T04:23:49;0.50;99.90
20815;DHT22;10568;48.176;16.316;2023-03-02T04:26:15;0.40;99.90
20815;DHT22;10568;48.176;16.316;2023-03-02T04:28:41;0.50;99.90
20815;DHT22;10568;48.176;16.316;2023-03-02T04:31:07;0.50;99.90
20815;DHT22;10568;48.176;16.316;2023-03-02T04:33:33;0.40;99.90
20815;DHT22;10568;48.176;16.316;2023-03-02T04:35:58;0.50;99.90
20815;DHT22;10568;48.176;16.316;2023-03-02T04:38:24;0.40;99.90
20815;DHT22;10568;48.176;16.316;2023-03-02T04:40:57;0.40;99.90
20815;DHT22;10568;48.176;16.316;2023-03-02T04:43:23;0.40;99.90
20815;DHT22;10568;48.176;16.316;2023-03-02T04:45:51;0.40;99.90
20815;DHT22;10568;48.176;16.316;2023-03-02T04:48:17;0.40;99.90
20815;DHT22;10568;48.176;16.316;2023-03-02T04:50:43;0.40;99.90
20815;DHT22;10568;48.176;16.316;2023-03-02T04:53:09;0.30;99.90
20815;DHT22;10568;48.176;16.316;2023-03-02T04:55:37;0.30;99.90
20815;DHT22;10568;48.176;16.316;2023-03-02T04:58:02;0.30;99.90
20815;DHT22;10568;48.176;16.316;2023-03-02T05:00:29;0.20;99.90
20815;DHT22;10568;48.176;16.316;2023-03-02T05:02:58;0.20;99.90
20815;DHT22;10568;48.176;16.316;2023-03-02T05:05:25;0.10;99.90
20815;DHT22;10568;48.176;16.316;2023-03-02T05:07:53;0.10;99.90
20815;DHT22;10568;48.176;16.316;2023-03-02T05:10:20;0.20;99.90
20815;DHT22;10568;48.176;16.316;2023-03-02T05:12:46;0.10;99.90
20815;DHT22;10568;48.176;16.316;2023-03-02T05:16:12;0.10;99.90
20815;DHT22;10568;48.176;16.316;2023-03-02T05:18:38;0.00;99.90
20815;DHT22;10568;48.176;16.316;2023-03-02T05:21:03;0.00;99.90
20815;DHT22;10568;48.176;16.316;2023-03-02T05:23:29;-0.10;99.90
20815;DHT22;10568;48.176;16.316;2023-03-02T05:25:56;-0.10;99.90
20815;DHT22;10568;48.176;16.316;2023-03-02T05:28:24;-0.10;99.90
20815;DHT22;10568;48.176;16.316;2023-03-02T05:30:50;-0.10;99.90
20815;DHT22;10568;48.176;16.316;2023-03-02T05:33:17;-0.20;99.90
20815;DHT22;10568;48.176;16.316;2023-03-02T05:35:43;-0.20;99.90
20815;DHT22;10568;48.176;16.316;2023-03-02T05:38:09;-0.20;99.90
20815;DHT22;10568;48.176;16.316;2023-03-02T05:40:37;-0.20;99.90
20815;DHT22;10568;48.176;16.316;2023-03-02T05:43:03;-0.20;99.90
20815;DHT22;10568;48.176;16.316;2023-03-02T05:45:32;-0.20;99.90
20815;DHT22;10568;48.176;16.316;2023-03-02T05:47:59;-0.30;99.90
20815;DHT22;10568;48.176;16.316;2023-03-02T05:50:25;-0.20;99.90
20815;DHT22;10568;48.176;16.316;2023-03-02T05:52:51;-0.30;99.90
20815;DHT22;10568;48.176;16.316;2023-03-02T05:55:17;-0.30;99.90
20815;DHT22;10568;48.176;16.316;2023-03-02T05:57:43;-0.20;99.90
20815;DHT22;10568;48.176;16.316;2023-03-02T06:00:11;-0.20;99.90
20815;DHT22;10568;48.176;16.316;2023-03-02T06:02:38;-0.20;99.90
20815;DHT22;10568;48.176;16.316;2023-03-02T06:05:09;-0.20;99.90
20815;DHT22;10568;48.176;16.316;2023-03-02T06:07:35;-0.20;99.90
20815;DHT22;10568;48.176;16.316;2023-03-02T06:10:02;-0.10;99.90
20815;DHT22;10568;48.176;16.316;2023-03-02T06:12:28;-0.10;99.90
20815;DHT22;10568;48.176;16.316;2023-03-02T06:14:53;0.00;99.90
20815;DHT22;10568;48.176;16.316;2023-03-02T06:17:19;0.00;99.90
20815;DHT22;10568;48.176;16.316;2023-03-02T06:19:45;0.00;99.90
20815;DHT22;10568;48.176;16.316;2023-03-02T06:22:11;0.10;99.90
20815;DHT22;10568;48.176;16.316;2023-03-02T06:24:36;0.10;99.90
20815;DHT22;10568;48.176;16.316;2023-03-02T06:27:02;0.10;99.90
20815;DHT22;10568;48.176;16.316;2023-03-02T06:29:28;0.10;99.90
20815;DHT22;10568;48.176;16.316;2023-03-02T06:31:54;0.20;99.90
20815;DHT22;10568;48.176;16.316;2023-03-02T06:34:19;0.20;99.90
20815;DHT22;10568;48.176;16.316;2023-03-02T06:36:45;0.30;99.90
20815;DHT22;10568;48.176;16.316;2023-03-02T06:39:11;0.30;99.90
20815;DHT22;10568;48.176;16.316;2023-03-02T06:41:47;0.30;99.90
20815;DHT22;10568;48.176;16.316;2023-03-02T06:44:14;0.40;99.90
20815;DHT22;10568;48.176;16.316;2023-03-02T06:46:40;0.50;99.90
20815;DHT22;10568;48.176;16.316;2023-03-02T06:49:07;0.50;99.90
20815;DHT22;10568;48.176;16.316;2023-03-02T06:51:33;0.60;99.90
20815;DHT22;10568;48.176;16.316;2023-03-02T06:53:59;0.70;99.90
20815;DHT22;10568;48.176;16.316;2023-03-02T06:56:25;0.90;99.90
20815;DHT22;10568;48.176;16.316;2023-03-02T06:58:52;1.00;99.90
20815;DHT22;10568;48.176;16.316;2023-03-02T07:01:18;1.10;99.90
20815;DHT22;10568;48.176;16.316;2023-03-02T07:03:44;1.20;99.90
20815;DHT22;10568;48.176;16.316;2023-03-02T07:06:11;1.30;99.90
20815;DHT22;10568;48.176;16.316;2023-03-02T07:08:37;1.40;99.90
20815;DHT22;10568;48.176;16.316;2023-03-02T07:11:08;1.50;99.90
20815;DHT22;10568;48.176;16.316;2023-03-02T07:13:35;1.70;99.90
20815;DHT22;10568;48.176;16.316;2023-03-02T07:16:09;1.80;99.90
20815;DHT22;10568;48.176;16.316;2023-03-02T07:18:35;2.00;99.90
20815;DHT22;10568;48.176;16.316;2023-03-02T07:21:01;2.20;99.90
20815;DHT22;10568;48.176;16.316;2023-03-02T07:23:27;2.40;99.90
20815;DHT22;10568;48.176;16.316;2023-03-02T07:25:53;2.60;99.90
20815;DHT22;10568;48.176;16.316;2023-03-02T07:28:18;2.70;99.90
20815;DHT22;10568;48.176;16.316;2023-03-02T07:30:46;2.90;99.90
20815;DHT22;10568;48.176;16.316;2023-03-02T07:33:11;3.00;99.90
20815;DHT22;10568;48.176;16.316;2023-03-02T07:35:37;3.20;99.90
20815;DHT22;10568;48.176;16.316;2023-03-02T07:38:03;3.30;99.90
20815;DHT22;10568;48.176;16.316;2023-03-02T07:40:29;3.40;99.90
20815;DHT22;10568;48.176;16.316;2023-03-02T07:42:55;3.40;99.90
20815;DHT22;10568;48.176;16.316;2023-03-02T07:45:20;3.60;99.90
20815;DHT22;10568;48.176;16.316;2023-03-02T07:47:49;3.70;99.90
20815;DHT22;10568;48.176;16.316;2023-03-02T07:50:15;4.00;99.90
20815;DHT22;10568;48.176;16.316;2023-03-02T07:52:41;4.20;99.90
20815;DHT22;10568;48.176;16.316;2023-03-02T07:55:07;4.30;99.90
20815;DHT22;10568;48.176;16.316;2023-03-02T07:57:33;4.50;99.90
20815;DHT22;10568;48.176;16.316;2023-03-02T07:59:59;4.60;99.90
20815;DHT22;10568;48.176;16.316;2023-03-02T08:02:24;4.60;99.90
20815;DHT22;10568;48.176;16.316;2023-03-02T08:04:50;4.90;99.90
20815;DHT22;10568;48.176;16.316;2023-03-02T08:07:17;4.90;99.90
20815;DHT22;10568;48.176;16.316;2023-03-02T08:09:42;5.10;99.90
20815;DHT22;10568;48.176;16.316;2023-03-02T08:12:08;5.10;99.90
20815;DHT22;10568;48.176;16.316;2023-03-02T08:14:34;5.10;99.90
20815;DHT22;10568;48.176;16.316;2023-03-02T08:17:00;5.30;99.90
20815;DHT22;10568;48.176;16.316;2023-03-02T08:19:26;5.40;99.90
20815;DHT22;10568;48.176;16.316;2023-03-02T08:21:52;5.40;99.90
20815;DHT22;10568;48.176;16.316;2023-03-02T08:24:18;5.30;99.90
20815;DHT22;10568;48.176;16.316;2023-03-02T08:26:44;5.40;99.90
20815;DHT22;10568;48.176;16.316;2023-03-02T08:29:11;5.30;99.90
20815;DHT22;10568;48.176;16.316;2023-03-02T08:31:36;5.30;99.90
20815;DHT22;10568;48.176;16.316;2023-03-02T08:34:02;5.20;99.90
20815;DHT22;10568;48.176;16.316;2023-03-02T08:36:28;5.10;99.90
20815;DHT22;10568;48.176;16.316;2023-03-02T08:38:54;5.00;99.90
20815;DHT22;10568;48.176;16.316;2023-03-02T08:41:22;5.10;99.90
20815;DHT22;10568;48.176;16.316;2023-03-02T08:43:48;5.10;99.90
20815;DHT22;10568;48.176;16.316;2023-03-02T08:46:17;5.10;99.90
20815;DHT22;10568;48.176;16.316;2023-03-02T08:48:43;5.10;99.90
20815;DHT22;10568;48.176;16.316;2023-03-02T08:51:13;5.20;99.90
20815;DHT22;10568;48.176;16.316;2023-03-02T08:53:41;5.20;99.90
20815;DHT22;10568;48.176;16.316;2023-03-02T08:56:21;5.30;99.90
20815;DHT22;10568;48.176;16.316;2023-03-02T08:58:48;5.40;99.90
20815;DHT22;10568;48.176;16.316;2023-03-02T09:01:20;5.40;99.90
20815;DHT22;10568;48.176;16.316;2023-03-02T09:03:46;5.50;99.90
20815;DHT22;10568;48.176;16.316;2023-03-02T09:06:12;5.50;99.90
20815;DHT22;10568;48.176;16.316;2023-03-02T09:08:41;5.60;99.90
20815;DHT22;10568;48.176;16.316;2023-03-02T09:11:07;5.70;99.90
20815;DHT22;10568;48.176;16.316;2023-03-02T09:13:33;5.90;99.90
20815;DHT22;10568;48.176;16.316;2023-03-02T09:15:59;6.10;99.90
20815;DHT22;10568;48.176;16.316;2023-03-02T09:18:28;6.30;99.90
20815;DHT22;10568;48.176;16.316;2023-03-02T09:20:54;6.80;99.90
20815;DHT22;10568;48.176;16.316;2023-03-02T09:23:24;7.20;99.90
20815;DHT22;10568;48.176;16.316;2023-03-02T09:26:28;7.50;99.90
20815;DHT22;10568;48.176;16.316;2023-03-02T09:28:54;8.00;99.90
20815;DHT22;10568;48.176;16.316;2023-03-02T09:31:21;8.40;99.90
20815;DHT22;10568;48.176;16.316;2023-03-02T09:33:46;8.40;99.90
20815;DHT22;10568;48.176;16.316;2023-03-02T09:36:18;8.70;99.90
20815;DHT22;10568;48.176;16.316;2023-03-02T09:38:45;8.80;99.90
20815;DHT22;10568;48.176;16.316;2023-03-02T09:41:30;9.00;99.90
20815;DHT22;10568;48.176;16.316;2023-03-02T09:46:58;9.10;99.90
20815;DHT22;10568;48.176;16.316;2023-03-02T09:52:15;9.40;99.90
20815;DHT22;10568;48.176;16.316;2023-03-02T09:54:45;9.60;99.90
20815;DHT22;10568;48.176;16.316;2023-03-02T09:57:24;10.00;99.90
20815;DHT22;10568;48.176;16.316;2023-03-02T09:59:57;10.30;99.90
20815;DHT22;10568;48.176;16.316;2023-03-02T10:02:31;10.10;99.90
20815;DHT22;10568;48.176;16.316;2023-03-02T10:05:03;10.60;99.90
20815;DHT22;10568;48.176;16.316;2023-03-02T10:15:48;11.70;99.90
20815;DHT22;10568;48.176;16.316;2023-03-02T10:18:44;12.00;99.90
20815;DHT22;10568;48.176;16.316;2023-03-02T10:24:00;11.60;98.20
20815;DHT22;10568;48.176;16.316;2023-03-02T10:26:57;11.60;96.80
20815;DHT22;10568;48.176;16.316;2023-03-02T10:29:30;12.00;97.50
20815;DHT22;10568;48.176;16.316;2023-03-02T10:32:02;12.20;99.00
20815;DHT22;10568;48.176;16.316;2023-03-02T10:34:29;11.70;96.60
20815;DHT22;10568;48.176;16.316;2023-03-02T10:36:56;12.20;96.80
20815;DHT22;10568;48.176;16.316;2023-03-02T10:39:22;12.90;99.90
20815;DHT22;10568;48.176;16.316;2023-03-02T10:42:03;12.20;95.40
20815;DHT22;10568;48.176;16.316;2023-03-02T10:44:39;13.00;98.40
20815;DHT22;10568;48.176;16.316;2023-03-02T10:47:17;13.20;98.00
20815;DHT22;10568;48.176;16.316;2023-03-02T10:49:46;13.30;94.10
20815;DHT22;10568;48.176;16.316;2023-03-02T10:52:15;13.40;96.20
20815;DHT22;10568;48.176;16.316;2023-03-02T10:54:41;13.50;95.80
20815;DHT22;10568;48.176;16.316;2023-03-02T10:57:41;13.40;93.80
20815;DHT22;10568;48.176;16.316;2023-03-02T11:05:19;13.80;93.40
20815;DHT22;10568;48.176;16.316;2023-03-02T11:10:21;14.20;91.10
20815;DHT22;10568;48.176;16.316;2023-03-02T11:12:50;14.50;94.50
20815;DHT22;10568;48.176;16.316;2023-03-02T11:20:34;14.60;92.30
20815;DHT22;10568;48.176;16.316;2023-03-02T11:25:35;14.60;89.30
20815;DHT22;10568;48.176;16.316;2023-03-02T11:28:10;14.90;93.60
20815;DHT22;10568;48.176;16.316;2023-03-02T11:30:46;14.90;92.00
20815;DHT22;10568;48.176;16.316;2023-03-02T11:33:16;14.90;90.60
20815;DHT22;10568;48.176;16.316;2023-03-02T11:36:15;15.10;92.90
20815;DHT22;10568;48.176;16.316;2023-03-02T11:38:45;15.00;88.00
20815;DHT22;10568;48.176;16.316;2023-03-02T11:41:28;14.80;90.50
20815;DHT22;10568;48.176;16.316;2023-03-02T11:43:59;15.00;89.60
20815;DHT22;10568;48.176;16.316;2023-03-02T11:46:29;14.90;92.00
20815;DHT22;10568;48.176;16.316;2023-03-02T11:49:04;15.10;91.40
20815;DHT22;10568;48.176;16.316;2023-03-02T11:51:35;14.80;91.30
20815;DHT22;10568;48.176;16.316;2023-03-02T11:54:38;15.10;87.30
20815;DHT22;10568;48.176;16.316;2023-03-02T11:57:07;15.00;88.00
20815;DHT22;10568;48.176;16.316;2023-03-02T11:59:41;14.60;86.60
20815;DHT22;10568;48.176;16.316;2023-03-02T12:02:10;14.70;89.60
20815;DHT22;10568;48.176;16.316;2023-03-02T12:04:38;14.90;84.60
20815;DHT22;10568;48.176;16.316;2023-03-02T12:07:24;14.80;84.20
20815;DHT22;10568;48.176;16.316;2023-03-02T12:10:23;14.70;84.10
20815;DHT22;10568;48.176;16.316;2023-03-02T12:13:02;14.80;82.20
20815;DHT22;10568;48.176;16.316;2023-03-02T12:21:05;14.60;83.50
20815;DHT22;10568;48.176;16.316;2023-03-02T12:23:35;14.90;83.50
20815;DHT22;10568;48.176;16.316;2023-03-02T12:31:26;14.90;86.00
20815;DHT22;10568;48.176;16.316;2023-03-02T12:34:23;14.90;87.40
20815;DHT22;10568;48.176;16.316;2023-03-02T12:37:03;14.80;79.40
20815;DHT22;10568;48.176;16.316;2023-03-02T12:42:44;14.50;79.00
20815;DHT22;10568;48.176;16.316;2023-03-02T12:46:36;14.70;77.70
20815;DHT22;10568;48.176;16.316;2023-03-02T12:51:23;14.40;79.90
20815;DHT22;10568;48.176;16.316;2023-03-02T12:54:04;14.20;80.60
20815;DHT22;10568;48.176;16.316;2023-03-02T12:56:30;14.30;83.70
20815;DHT22;10568;48.176;16.316;2023-03-02T12:58:56;14.20;81.40
20815;DHT22;10568;48.176;16.316;2023-03-02T13:01:25;14.00;79.90
20815;DHT22;10568;48.176;16.316;2023-03-02T13:03:52;13.90;81.30
20815;DHT22;10568;48.176;16.316;2023-03-02T13:06:19;13.80;81.90
20815;DHT22;10568;48.176;16.316;2023-03-02T13:08:49;13.70;83.10
20815;DHT22;10568;48.176;16.316;2023-03-02T13:11:31;13.80;84.20
20815;DHT22;10568;48.176;16.316;2023-03-02T13:13:59;13.50;76.40
20815;DHT22;10568;48.176;16.316;2023-03-02T13:16:27;13.40;77.30
20815;DHT22;10568;48.176;16.316;2023-03-02T13:18:56;13.30;78.90
20815;DHT22;10568;48.176;16.316;2023-03-02T13:23:56;13.20;78.70
20815;DHT22;10568;48.176;16.316;2023-03-02T13:26:30;13.10;83.10
20815;DHT22;10568;48.176;16.316;2023-03-02T13:29:24;12.90;79.50
20815;DHT22;10568;48.176;16.316;2023-03-02T13:32:24;12.60;80.60
20815;DHT22;10568;48.176;16.316;2023-03-02T13:34:52;12.50;81.30
20815;DHT22;10568;48.176;16.316;2023-03-02T13:39:56;12.40;81.60
20815;DHT22;10568;48.176;16.316;2023-03-02T13:42:48;12.30;82.00
20815;DHT22;10568;48.176;16.316;2023-03-02T13:45:23;12.30;82.20
20815;DHT22;10568;48.176;16.316;2023-03-02T13:47:49;12.20;79.90
20815;DHT22;10568;48.176;16.316;2023-03-02T13:50:21;12.20;83.90
20815;DHT22;10568;48.176;16.316;2023-03-02T13:52:48;12.20;82.10
20815;DHT22;10568;48.176;16.316;2023-03-02T13:55:16;12.20;81.90
20815;DHT22;10568;48.176;16.316;2023-03-02T13:57:50;12.10;81.70
20815;DHT22;10568;48.176;16.316;2023-03-02T14:00:34;12.00;77.90
20815;DHT22;10568;48.176;16.316;2023-03-02T14:03:00;12.00;84.40
20815;DHT22;10568;48.176;16.316;2023-03-02T14:05:26;11.90;79.80
20815;DHT22;10568;48.176;16.316;2023-03-02T14:07:58;11.90;80.10
20815;DHT22;10568;48.176;16.316;2023-03-02T14:10:24;11.90;78.60
20815;DHT22;10568;48.176;16.316;2023-03-02T14:12:59;11.80;78.40
20815;DHT22;10568;48.176;16.316;2023-03-02T14:15:27;11.90;79.50
20815;DHT22;10568;48.176;16.316;2023-03-02T14:17:52;11.90;78.00
20815;DHT22;10568;48.176;16.316;2023-03-02T14:20:19;12.00;78.80
20815;DHT22;10568;48.176;16.316;2023-03-02T14:22:46;12.10;76.80
20815;DHT22;10568;48.176;16.316;2023-03-02T14:25:12;12.10;79.20
20815;DHT22;10568;48.176;16.316;2023-03-02T14:27:38;12.30;81.10
20815;DHT22;10568;48.176;16.316;2023-03-02T14:30:31;12.40;79.20
20815;DHT22;10568;48.176;16.316;2023-03-02T14:32:56;12.60;78.30
20815;DHT22;10568;48.176;16.316;2023-03-02T14:35:24;12.70;76.40
20815;DHT22;10568;48.176;16.316;2023-03-02T14:37:50;12.80;75.00
20815;DHT22;10568;48.176;16.316;2023-03-02T14:40:24;12.90;78.40
20815;DHT22;10568;48.176;16.316;2023-03-02T14:42:51;12.90;75.30
20815;DHT22;10568;48.176;16.316;2023-03-02T14:45:18;13.00;82.30
20815;DHT22;10568;48.176;16.316;2023-03-02T14:47:45;13.10;76.20
20815;DHT22;10568;48.176;16.316;2023-03-02T14:50:11;13.00;76.00
20815;DHT22;10568;48.176;16.316;2023-03-02T14:52:40;12.70;72.10
20815;DHT22;10568;48.176;16.316;2023-03-02T14:57:56;12.30;77.20
20815;DHT22;10568;48.176;16.316;2023-03-02T15:00:23;12.20;75.80
20815;DHT22;10568;48.176;16.316;2023-03-02T15:02:49;11.90;80.10
20815;DHT22;10568;48.176;16.316;2023-03-02T15:05:15;11.80;81.10
20815;DHT22;10568;48.176;16.316;2023-03-02T15:07:41;11.60;79.50
20815;DHT22;10568;48.176;16.316;2023-03-02T15:10:11;11.50;82.50
20815;DHT22;10568;48.176;16.316;2023-03-02T15:12:37;11.30;82.00
20815;DHT22;10568;48.176;16.316;2023-03-02T15:15:03;11.20;83.00
20815;DHT22;10568;48.176;16.316;2023-03-02T15:17:29;11.10;84.30
20815;DHT22;10568;48.176;16.316;2023-03-02T15:19:55;11.00;82.10
20815;DHT22;10568;48.176;16.316;2023-03-02T15:22:20;11.00;85.00
20815;DHT22;10568;48.176;16.316;2023-03-02T15:24:46;10.90;83.00
20815;DHT22;10568;48.176;16.316;2023-03-02T15:27:12;10.80;84.20
20815;DHT22;10568;48.176;16.316;2023-03-02T15:29:41;10.70;85.20
20815;DHT22;10568;48.176;16.316;2023-03-02T15:32:06;10.60;83.30
20815;DHT22;10568;48.176;16.316;2023-03-02T15:34:32;10.50;87.50
20815;DHT22;10568;48.176;16.316;2023-03-02T15:36:58;10.30;89.40
20815;DHT22;10568;48.176;16.316;2023-03-02T15:39:24;10.30;85.70
20815;DHT22;10568;48.176;16.316;2023-03-02T15:41:49;10.20;86.90
20815;DHT22;10568;48.176;16.316;2023-03-02T15:44:21;10.10;88.70
20815;DHT22;10568;48.176;16.316;2023-03-02T15:46:48;10.10;84.10
20815;DHT22;10568;48.176;16.316;2023-03-02T15:49:14;10.00;87.80
20815;DHT22;10568;48.176;16.316;2023-03-02T15:51:39;9.90;87.90
20815;DHT22;10568;48.176;16.316;2023-03-02T15:54:05;9.80;85.90
20815;DHT22;10568;48.176;16.316;2023-03-02T15:56:31;9.80;88.10
20815;DHT22;10568;48.176;16.316;2023-03-02T15:58:58;9.70;88.40
20815;DHT22;10568;48.176;16.316;2023-03-02T16:01:25;9.60;89.10
20815;DHT22;10568;48.176;16.316;2023-03-02T16:03:51;9.50;88.20
20815;DHT22;10568;48.176;16.316;2023-03-02T16:06:18;9.40;89.60
20815;DHT22;10568;48.176;16.316;2023-03-02T16:08:44;9.30;90.60
20815;DHT22;10568;48.176;16.316;2023-03-02T16:11:10;9.20;91.20
20815;DHT22;10568;48.176;16.316;2023-03-02T16:13:36;9.10;87.70
20815;DHT22;10568;48.176;16.316;2023-03-02T16:16:04;9.00;91.30
20815;DHT22;10568;48.176;16.316;2023-03-02T16:18:31;8.90;90.90
20815;DHT22;10568;48.176;16.316;2023-03-02T16:20:57;8.80;90.50
20815;DHT22;10568;48.176;16.316;2023-03-02T16:23:23;8.70;90.50
20815;DHT22;10568;48.176;16.316;2023-03-02T16:25:49;8.70;90.60
20815;DHT22;10568;48.176;16.316;2023-03-02T16:28:17;8.60;90.50
20815;DHT22;10568;48.176;16.316;2023-03-02T16:30:43;8.50;90.40
20815;DHT22;10568;48.176;16.316;2023-03-02T16:33:14;8.40;90.70
20815;DHT22;10568;48.176;16.316;2023-03-02T16:35:40;8.40;90.70
20815;DHT22;10568;48.176;16.316;2023-03-02T16:38:06;8.30;90.20
20815;DHT22;10568;48.176;16.316;2023-03-02T16:40:34;8.10;91.10
20815;DHT22;10568;48.176;16.316;2023-03-02T16:43:00;8.00;92.40
20815;DHT22;10568;48.176;16.316;2023-03-02T16:45:26;7.90;92.20
20815;DHT22;10568;48.176;16.316;2023-03-02T16:47:52;7.90;91.40
20815;DHT22;10568;48.176;16.316;2023-03-02T16:50:18;7.80;91.10
20815;DHT22;10568;48.176;16.316;2023-03-02T16:52:44;7.70;91.70
20815;DHT22;10568;48.176;16.316;2023-03-02T16:55:13;7.60;91.30
20815;DHT22;10568;48.176;16.316;2023-03-02T16:57:39;7.50;91.60